CW9533 Torre Faro Messina IT current weather conditions

sailwx.info

Wind from 199 at 12 knots gusting 21

Air temperature 29.4° C
Dewpoint 25.6° C

Last reported at 2015-Aug-02 11:47 UTC.
Time now 2015-Aug-02 12:25 UTC

Location: N 38°16' E 015°39'.
View on Google Maps.

See reports from other nearby stations

  
Tides and Currents Weather Stations Pressure Air Temp Water Temp Dewpoint Dewpoint Depression Visibility Wind Speed Wind Dir Waves Ship Positions
date/time (UTC)wind fromknots sea level pressurealtimeterstation pressurevisibilityair tempwater tempwave heightnotes
2015-Aug-02 11:47 199 12 gusting 21 29.4
2015-Aug-02 11:33 222 10 gusting 19 29.4
2015-Aug-02 11:17
2015-Aug-02 11:06
2015-Aug-02 10:46 219 11 gusting 19 30.0
2015-Aug-02 10:31 246 11 gusting 17 29.4
2015-Aug-02 10:16 207 10 gusting 18 29.4
2015-Aug-02 10:01 229 8 gusting 17 29.4
2015-Aug-02 09:46 222 9 gusting 17 29.4
2015-Aug-02 09:31 218 8 gusting 16 29.4
2015-Aug-02 09:16 215 7 gusting 14 29.4
2015-Aug-02 09:01 215 6 gusting 13 28.9
2015-Aug-02 08:46 229 8 gusting 13 28.9
2015-Aug-02 08:31 221 6 gusting 12 28.9
2015-Aug-02 08:16 213 6 gusting 11 28.9
2015-Aug-02 08:01 221 6 gusting 10 28.9
2015-Aug-02 07:46 213 4 gusting 10 28.9
2015-Aug-02 07:31 211 4 gusting 8 29.4
2015-Aug-02 07:16 213 2 gusting 6 29.4
2015-Aug-02 07:01 212 1 gusting 6 28.9
2015-Aug-02 06:46 212 2 gusting 6 27.8
2015-Aug-02 06:31 040 2 gusting 7 27.8
2015-Aug-02 06:16 039 27.2
2015-Aug-02 06:01 039 0 gusting 5 27.2
2015-Aug-02 05:46 039 1 gusting 6 27.2
2015-Aug-02 05:31 039 27.2
2015-Aug-02 05:16 039 1 gusting 5 27.2
2015-Aug-02 05:01 040 2 gusting 8 27.2
2015-Aug-02 04:46 040 4 gusting 8 27.2
2015-Aug-02 04:31 034 4 gusting 12 27.2
2015-Aug-02 04:16 026 7 gusting 11 27.2
2015-Aug-02 04:01 034 6 gusting 10 26.7
2015-Aug-02 03:46 044 6 gusting 11 26.7
2015-Aug-02 03:31 058 5 gusting 13 26.7
2015-Aug-02 03:16 039 8 gusting 16 26.7
2015-Aug-02 03:01 042 6 gusting 10 26.7
2015-Aug-02 02:46 060 6 gusting 11 26.7
2015-Aug-02 02:31 051 4 gusting 7 27.2
2015-Aug-02 02:16 050 5 gusting 8 27.2
2015-Aug-02 02:01 055 2 gusting 6 27.2
2015-Aug-02 01:46 053 5 gusting 11 27.2
2015-Aug-02 01:31 043 4 gusting 10 27.2
2015-Aug-02 01:16 039 4 gusting 9 27.2
2015-Aug-02 01:01 036 5 gusting 9 27.2
2015-Aug-02 00:46 034 4 gusting 9 27.8
2015-Aug-02 00:31 030 6 gusting 10 27.2
2015-Aug-02 00:16 191 3 gusting 7 27.2
2015-Aug-02 00:01 213 3 gusting 7 27.2
2015-Aug-01 23:46 213 1 gusting 4 27.2
2015-Aug-01 23:31 213 2 gusting 5 26.7
2015-Aug-01 23:16 213 25.6
2015-Aug-01 23:01 213 26.1
2015-Aug-01 22:45 213 25.6
2015-Aug-01 22:30 213 25.0
2015-Aug-01 22:15 213 26.1
2015-Aug-01 22:00 213 26.7
2015-Aug-01 21:45 213 26.7
2015-Aug-01 21:30 213 26.7
2015-Aug-01 21:15 213 26.7
2015-Aug-01 21:00 213 26.7
2015-Aug-01 20:45 213 26.7
2015-Aug-01 20:30 213 26.7
2015-Aug-01 20:15 213 27.2
2015-Aug-01 20:00 213 27.2
2015-Aug-01 19:45 213 27.2
2015-Aug-01 19:30 213 1 gusting 3 27.2
2015-Aug-01 19:15 213 27.2
2015-Aug-01 19:00 213 27.2
2015-Aug-01 18:45 213 1 gusting 5 27.8
2015-Aug-01 18:30 213 0 gusting 3 27.8
2015-Aug-01 18:15 213 0 gusting 5 27.8
2015-Aug-01 18:00 213 27.8
2015-Aug-01 17:45 213 0 gusting 5 27.8
2015-Aug-01 17:19
2015-Aug-01 17:13 215 3 gusting 7 27.8
2015-Aug-01 16:58 214 3 gusting 9 27.8
2015-Aug-01 16:43 213 6 gusting 8 27.8
2015-Aug-01 16:28 218 5 gusting 9 28.3
2015-Aug-01 16:13 213 6 gusting 12 28.3
2015-Aug-01 15:58 216 8 gusting 14 28.9
2015-Aug-01 15:43 213 7 gusting 14 28.9
2015-Aug-01 15:28 217 9 gusting 15 28.9
2015-Aug-01 15:13 217 9 gusting 13 28.9
2015-Aug-01 14:58 213 8 gusting 15 28.9
2015-Aug-01 14:43 221 8 gusting 14 28.9
2015-Aug-01 14:28 218 7 gusting 13 28.9
2015-Aug-01 14:13 216 7 gusting 12 28.9
2015-Aug-01 13:58 217 7 gusting 15 28.9
2015-Aug-01 13:43 219 8 gusting 13 29.4
2015-Aug-01 13:28 212 7 gusting 14 29.4
2015-Aug-01 13:13 219 9 gusting 14 29.4
2015-Aug-01 12:58 219 6 gusting 13 30.0
2015-Aug-01 12:43 210 6 gusting 13 30.0
2015-Aug-01 12:28 221 6 gusting 14 30.0
2015-Aug-01 12:13 210 7 gusting 13 30.0
2015-Aug-01 11:58 211 8 gusting 15 30.0
2015-Aug-01 11:43 224 9 gusting 15 30.0
2015-Aug-01 11:28 216 6 gusting 13 30.0
2015-Aug-01 11:13 213 6 gusting 11 30.0
2015-Aug-01 10:58 202 5 gusting 9 30.0
2015-Aug-01 10:43 192 6 gusting 11 30.0
2015-Aug-01 10:28 166 3 gusting 8 30.6
2015-Aug-01 10:13 126 1 gusting 6 30.6
2015-Aug-01 09:58 122 2 gusting 7 31.1
2015-Aug-01 09:43 113 4 gusting 9 31.1
2015-Aug-01 09:28 069 2 gusting 6 30.6
2015-Aug-01 09:13 069 2 gusting 6 30.6
2015-Aug-01 08:58 069 1 gusting 7 31.1
2015-Aug-01 08:43 069 30.6
2015-Aug-01 08:28 068 1 gusting 6 30.6
2015-Aug-01 08:13 068 2 gusting 9 30.0
2015-Aug-01 07:58 065 2 gusting 9 30.0
2015-Aug-01 07:43 055 3 gusting 8 29.4
2015-Aug-01 07:28 050 4 gusting 8 29.4
2015-Aug-01 07:12 048 2 gusting 7 28.9
2015-Aug-01 06:58 046 3 gusting 7 28.9
2015-Aug-01 06:43 047 4 gusting 8 28.9
2015-Aug-01 06:28 048 1 gusting 9 28.9
2015-Aug-01 06:13 047 3 gusting 7 28.9
2015-Aug-01 05:57 046 2 gusting 6 28.3
2015-Aug-01 05:42 046 4 gusting 6 27.8
2015-Aug-01 05:27 046 3 gusting 6 28.3
2015-Aug-01 05:12 046 2 gusting 6 27.8
2015-Aug-01 04:57 045 3 gusting 7 27.2
2015-Aug-01 04:42 044 3 gusting 8 27.2
2015-Aug-01 04:26 036 3 gusting 6 27.2
2015-Aug-01 04:12 036 0 gusting 8 27.2
2015-Aug-01 03:57 038 5 gusting 9 27.2
2015-Aug-01 03:42 040 5 gusting 13 27.8
2015-Aug-01 03:27 052 5 gusting 8 28.3
2015-Aug-01 03:12 052 5 gusting 9 27.8
2015-Aug-01 02:57 050 4 gusting 8 28.3
2015-Aug-01 02:42 050 3 gusting 7 28.3
2015-Aug-01 02:27 050 3 gusting 6 28.3
2015-Aug-01 02:13 050 3 gusting 6 28.9
2015-Aug-01 01:57 050 3 gusting 6 28.9
2015-Aug-01 01:42 050 2 gusting 6 28.9
2015-Aug-01 01:27 050 3 gusting 6 28.9
2015-Aug-01 01:12 050 4 gusting 8 28.9
2015-Aug-01 00:57 050 4 gusting 7 28.9
2015-Aug-01 00:42 050 4 gusting 7 28.9
2015-Aug-01 00:27 049 5 gusting 8 28.9
2015-Aug-01 00:12 051 3 gusting 6 29.4
2015-Jul-31 23:57 051 1 gusting 6 29.4
2015-Jul-31 23:42 051 28.9
2015-Jul-31 23:27 050 3 gusting 6 28.9
2015-Jul-31 23:12 050 3 gusting 6 29.4
2015-Jul-31 22:57 049 3 gusting 8 28.9
2015-Jul-31 22:42 047 4 gusting 7 28.9
2015-Jul-31 22:27 046 2 gusting 6 28.9
2015-Jul-31 22:12 046 5 gusting 9 29.4
2015-Jul-31 21:57 051 4 gusting 7 28.9
2015-Jul-31 21:42 051 3 gusting 6 28.3
2015-Jul-31 21:27 051 3 gusting 6 28.3
2015-Jul-31 21:12 051 2 gusting 7 28.3
2015-Jul-31 20:57 051 2 gusting 6 28.3
2015-Jul-31 20:42 051 3 gusting 6 28.3
2015-Jul-31 20:27 051 2 gusting 6 28.9
2015-Jul-31 20:12 051 2 gusting 6 30.0
2015-Jul-31 19:57 051 1 gusting 4 30.0
2015-Jul-31 19:42 051 1 gusting 3 29.4
2015-Jul-31 19:27 051 2 gusting 7 29.4
2015-Jul-31 19:12 051 4 gusting 6 28.9
2015-Jul-31 18:57 051 4 gusting 7 28.3
2015-Jul-31 18:42 052 4 gusting 6 28.3
2015-Jul-31 18:27 052 4 gusting 6 28.9
2015-Jul-31 18:12 052 3 gusting 7 28.9
2015-Jul-31 17:57 052 3 gusting 8 28.9
2015-Jul-31 17:42 053 5 gusting 9 28.9
2015-Jul-31 17:27 052 5 gusting 9 28.9
2015-Jul-31 17:12 062 6 gusting 10 28.9
2015-Jul-31 16:56 087 5 gusting 12 30.0
2015-Jul-31 16:41 186 3 gusting 6 31.1
2015-Jul-31 16:26 194 0 gusting 5 31.1
2015-Jul-31 16:11 194 0 gusting 5 32.2
2015-Jul-31 15:56 194 1 gusting 6 33.9
2015-Jul-31 15:41 194 4 gusting 6 33.9
2015-Jul-31 15:26 194 2 gusting 6 33.9
2015-Jul-31 15:11 193 4 gusting 6 34.4
2015-Jul-31 14:56 193 1 gusting 5 35.0
2015-Jul-31 14:41 193 3 gusting 7 34.4
2015-Jul-31 14:26 189 4 gusting 8 34.4
2015-Jul-31 14:11 180 3 gusting 9 34.4
2015-Jul-31 13:56 150 4 gusting 6 34.4
2015-Jul-31 13:41 128 3 gusting 9 33.9
2015-Jul-31 13:26 051 2 gusting 6 34.4
2015-Jul-31 13:11 043 0 gusting 3 35.0
2015-Jul-31 12:56 043 1 gusting 4 33.9
2015-Jul-31 12:41 043 0 gusting 5 34.4
2015-Jul-31 12:26 043 0 gusting 6 35.0
2015-Jul-31 12:11 043 1 gusting 5 35.0